Time;durP1;ratioP1;P1;durP2;ratioP2;P2;SDS_P1;SDS_P2;PMS_P1;PMS_P2;Temp;Humidity;BMP_temperature;BMP_pressure;BME280_temperature;BME280_humidity;BME280_pressure;Samples;Min_cycle;Max_cycle;Signal;HPM_P1;HPM_P2
2022/04/01 00:00:10;;;;;;;;;;;13.20;64.30;;;;;;5048241;28;88824;-54
2022/04/01 00:02:39;;;;;;;;;;;13.20;64.30;;;;;;5049078;28;87084;-53
2022/04/01 00:05:06;;;;;;;;;;;13.20;64.20;;;;;;5051953;28;87003;-53
2022/04/01 00:07:32;;;;;;;;;;;13.20;64.90;;;;;;5049187;28;86944;-53
2022/04/01 00:09:58;;;;;;;;;;;13.20;64.20;;;;;;5049245;28;87097;-53
2022/04/01 00:12:23;;;;;;;;;;;13.20;64.20;;;;;;5048693;28;88593;-53
2022/04/01 00:14:50;;;;;;;;;;;13.10;64.20;;;;;;5049052;28;86869;-54
2022/04/01 00:17:15;;;;;;;;;;;13.10;64.20;;;;;;5049461;28;87950;-53
2022/04/01 00:19:41;;;;;;;;;;;13.20;64.20;;;;;;5048139;28;88170;-53
2022/04/01 00:22:06;;;;;;;;;;;13.10;64.20;;;;;;5049184;28;86881;-53
2022/04/01 00:24:33;;;;;;;;;;;13.10;64.20;;;;;;5048448;28;87841;-53
2022/04/01 00:26:59;;;;;;;;;;;13.20;64.10;;;;;;5051476;28;88525;-53
2022/04/01 00:29:24;;;;;;;;;;;13.10;64.10;;;;;;5048935;28;88199;-53
2022/04/01 00:31:58;;;;;;;;;;;13.10;64.10;;;;;;5047893;27;87682;-53
2022/04/01 00:34:27;;;;;;;;;;;13.10;64.10;;;;;;5048699;28;86881;-54
2022/04/01 00:36:53;;;;;;;;;;;13.10;64.10;;;;;;5048870;28;88060;-54
2022/04/01 00:39:19;;;;;;;;;;;13.10;64.00;;;;;;5048180;28;88343;-53
2022/04/01 00:41:47;;;;;;;;;;;13.10;64.10;;;;;;5049097;28;86078;-56
2022/04/01 00:44:20;;;;;;;;;;;13.10;64.00;;;;;;5048869;28;86872;-55
2022/04/01 00:46:46;;;;;;;;;;;13.10;64.00;;;;;;5048139;28;88575;-54
2022/04/01 00:49:13;;;;;;;;;;;13.10;64.00;;;;;;5050944;28;87943;-53
2022/04/01 00:51:43;;;;;;;;;;;13.10;64.00;;;;;;5048039;28;88505;-53
2022/04/01 00:54:09;;;;;;;;;;;13.10;64.00;;;;;;5048458;28;86873;-56
2022/04/01 00:56:36;;;;;;;;;;;13.10;64.00;;;;;;5048609;28;86848;-53
2022/04/01 00:59:02;;;;;;;;;;;13.10;64.00;;;;;;5047990;28;88946;-53
2022/04/01 01:01:30;;;;;;;;;;;13.10;64.00;;;;;;5048270;28;87466;-53
2022/04/01 01:03:55;;;;;;;;;;;13.10;64.00;;;;;;5048378;28;88095;-53
2022/04/01 01:06:21;;;;;;;;;;;13.10;64.10;;;;;;5048556;28;88103;-55
2022/04/01 01:08:48;;;;;;;;;;;13.00;64.00;;;;;;5048154;28;86878;-55
2022/04/01 01:11:14;;;;;;;;;;;13.00;64.00;;;;;;5050869;28;87966;-56
2022/04/01 01:13:40;;;;;;;;;;;13.00;64.00;;;;;;5047569;28;87895;-56
2022/04/01 01:16:07;;;;;;;;;;;13.10;64.00;;;;;;5048095;28;89013;-56
2022/04/01 01:18:33;;;;;;;;;;;13.10;64.00;;;;;;5047743;28;88306;-56
2022/04/01 01:20:59;;;;;;;;;;;13.00;63.90;;;;;;5047963;28;86857;-57
2022/04/01 01:23:29;;;;;;;;;;;13.00;63.90;;;;;;5048004;28;87825;-57
2022/04/01 01:25:54;;;;;;;;;;;13.00;63.90;;;;;;5047775;28;87625;-53
2022/04/01 01:28:21;;;;;;;;;;;13.00;63.90;;;;;;5047931;28;86832;-55
2022/04/01 01:30:47;;;;;;;;;;;13.00;63.90;;;;;;5048362;28;87223;-57
2022/04/01 01:33:12;;;;;;;;;;;13.00;64.00;;;;;;5050379;28;88472;-53
2022/04/01 01:35:38;;;;;;;;;;;13.00;64.00;;;;;;5048152;28;86939;-54
2022/04/01 01:38:04;;;;;;;;;;;13.00;64.00;;;;;;5046463;28;88594;-54
2022/04/01 01:40:30;;;;;;;;;;;13.00;64.00;;;;;;5047772;28;86851;-53
2022/04/01 01:42:56;;;;;;;;;;;12.90;64.00;;;;;;5047589;28;87909;-53
2022/04/01 01:45:22;;;;;;;;;;;12.90;64.00;;;;;;5047281;28;88863;-54
2022/04/01 01:47:47;;;;;;;;;;;12.90;64.60;;;;;;5047620;28;86989;-53
2022/04/01 01:55:42;;;;;;;;;;;12.90;64.10;;;;;;5051225;28;86126;-55
2022/04/01 01:58:07;;;;;;;;;;;12.90;64.00;;;;;;5047018;28;88605;-54
2022/04/01 02:00:33;;;;;;;;;;;12.90;64.10;;;;;;5047349;28;86958;-57
2022/04/01 02:02:59;;;;;;;;;;;12.90;64.10;;;;;;5046734;28;87928;-54
2022/04/01 02:05:24;;;;;;;;;;;12.90;64.10;;;;;;5046932;28;87748;-56
2022/04/01 02:07:52;;;;;;;;;;;12.90;64.10;;;;;;5047346;28;86861;-53
2022/04/01 02:10:18;;;;;;;;;;;12.90;64.20;;;;;;5047258;28;87196;-56
2022/04/01 02:12:44;;;;;;;;;;;12.90;64.20;;;;;;5046813;28;87482;-54
2022/04/01 02:15:10;;;;;;;;;;;12.90;64.20;;;;;;5050405;28;86962;-53
2022/04/01 02:17:40;;;;;;;;;;;12.90;64.30;;;;;;5046745;28;87591;-52
2022/04/01 02:20:09;;;;;;;;;;;12.90;64.30;;;;;;5047531;28;86369;-54
2022/04/01 02:22:38;;;;;;;;;;;12.90;64.30;;;;;;5047043;28;86919;-52
2022/04/01 02:25:05;;;;;;;;;;;12.90;64.20;;;;;;5046966;28;87491;-56
2022/04/01 02:27:30;;;;;;;;;;;12.80;64.20;;;;;;5045645;28;87852;-54
2022/04/01 02:29:57;;;;;;;;;;;12.80;64.20;;;;;;5046931;28;88862;-53
2022/04/01 02:32:25;;;;;;;;;;;12.90;64.30;;;;;;5046485;28;88646;-53
2022/04/01 02:34:51;;;;;;;;;;;12.80;64.30;;;;;;5046995;28;86871;-53
2022/04/01 02:37:20;;;;;;;;;;;12.90;64.30;;;;;;5049446;28;87266;-55
2022/04/01 02:39:46;;;;;;;;;;;12.80;64.30;;;;;;5046437;28;86976;-55
2022/04/01 02:42:12;;;;;;;;;;;12.80;64.20;;;;;;5046983;28;86891;-54
2022/04/01 02:44:38;;;;;;;;;;;12.90;64.30;;;;;;5047165;28;86768;-57
2022/04/01 02:47:04;;;;;;;;;;;12.80;64.30;;;;;;5046703;28;87081;-52
2022/04/01 02:49:29;;;;;;;;;;;12.80;64.30;;;;;;5046679;28;88002;-54
2022/04/01 02:51:55;;;;;;;;;;;12.80;64.30;;;;;;5045596;28;88553;-53
2022/04/01 02:54:21;;;;;;;;;;;12.80;64.30;;;;;;5046843;28;87252;-56
2022/04/01 02:56:47;;;;;;;;;;;12.80;64.30;;;;;;5046051;27;87978;-53
2022/04/01 02:59:12;;;;;;;;;;;12.80;64.30;;;;;;5049000;28;88640;-53
2022/04/01 03:01:41;;;;;;;;;;;12.80;64.30;;;;;;5046388;28;87911;-53
2022/04/01 03:04:11;;;;;;;;;;;12.80;64.30;;;;;;5046015;28;87622;-52
2022/04/01 03:06:38;;;;;;;;;;;12.80;64.40;;;;;;5046359;28;86839;-54
2022/04/01 03:09:05;;;;;;;;;;;12.80;64.30;;;;;;5046877;28;88220;-53
2022/04/01 03:11:30;;;;;;;;;;;12.80;64.40;;;;;;5045966;28;88530;-52
2022/04/01 03:13:57;;;;;;;;;;;12.70;64.30;;;;;;5046296;28;86825;-54
2022/04/01 03:16:23;;;;;;;;;;;12.70;64.30;;;;;;5045020;28;87899;-56
2022/04/01 03:18:49;;;;;;;;;;;12.80;64.40;;;;;;5045969;28;87578;-53
2022/04/01 03:21:15;;;;;;;;;;;12.70;64.30;;;;;;5049028;28;86871;-54
2022/04/01 03:23:41;;;;;;;;;;;12.80;64.40;;;;;;5045905;28;88419;-53
2022/04/01 03:26:07;;;;;;;;;;;12.70;64.40;;;;;;5046140;28;86929;-55
2022/04/01 03:28:34;;;;;;;;;;;12.70;64.30;;;;;;5046172;28;88324;-54
2022/04/01 03:31:00;;;;;;;;;;;12.70;64.40;;;;;;5045643;28;88444;-53
2022/04/01 03:33:26;;;;;;;;;;;12.70;64.40;;;;;;5046563;28;86168;-54
2022/04/01 03:35:52;;;;;;;;;;;12.70;65.00;;;;;;5046332;28;87099;-56
2022/04/01 03:38:17;;;;;;;;;;;12.70;64.50;;;;;;5044968;28;88500;-53
2022/04/01 03:40:47;;;;;;;;;;;12.70;64.40;;;;;;5045225;28;88086;-56
2022/04/01 03:43:12;;;;;;;;;;;12.70;64.50;;;;;;5048622;28;87621;-53
2022/04/01 03:45:38;;;;;;;;;;;12.70;64.50;;;;;;5046172;28;86897;-53
2022/04/01 03:48:11;;;;;;;;;;;12.70;64.50;;;;;;5046006;28;88146;-53
2022/04/01 03:50:38;;;;;;;;;;;12.70;64.50;;;;;;5045502;28;88476;-57
2022/04/01 03:53:06;;;;;;;;;;;12.70;64.50;;;;;;5045882;28;86887;-55
2022/04/01 03:55:33;;;;;;;;;;;12.70;64.50;;;;;;5045826;28;88056;-57
2022/04/01 03:58:07;;;;;;;;;;;12.70;64.50;;;;;;5045872;28;87688;-55
2022/04/01 04:00:33;;;;;;;;;;;12.70;64.50;;;;;;5045764;28;86862;-53
2022/04/01 04:02:59;;;;;;;;;;;12.70;64.50;;;;;;5045698;28;87901;-53
2022/04/01 04:05:27;;;;;;;;;;;12.60;64.50;;;;;;5047597;28;89409;-53
2022/04/01 04:07:53;;;;;;;;;;;12.70;64.60;;;;;;5046887;28;88757;-55
2022/04/01 04:10:21;;;;;;;;;;;12.70;64.50;;;;;;5048760;28;88624;-53
2022/04/01 04:12:47;;;;;;;;;;;12.60;64.50;;;;;;5049019;28;87061;-53
2022/04/01 04:15:13;;;;;;;;;;;12.60;64.50;;;;;;5048411;28;86942;-54
2022/04/01 04:17:42;;;;;;;;;;;12.70;64.50;;;;;;5048671;28;88562;-53
2022/04/01 04:20:10;;;;;;;;;;;12.60;64.50;;;;;;5048960;28;86866;-54
2022/04/01 04:22:51;;;;;;;;;;;12.60;64.50;;;;;;5049423;28;87104;-55
2022/04/01 04:25:21;;;;;;;;;;;12.60;64.60;;;;;;5050319;28;89012;-53
2022/04/01 04:27:51;;;;;;;;;;;12.60;64.60;;;;;;5048881;28;87856;-53
2022/04/01 04:30:17;;;;;;;;;;;12.60;64.70;;;;;;5047704;28;89620;-55
2022/04/01 04:32:47;;;;;;;;;;;12.60;64.60;;;;;;5048802;28;86843;-56
2022/04/01 04:35:15;;;;;;;;;;;12.60;64.70;;;;;;5048790;28;88065;-56
2022/04/01 04:37:45;;;;;;;;;;;12.60;64.70;;;;;;5048123;28;89192;-54
2022/04/01 04:40:12;;;;;;;;;;;12.60;64.70;;;;;;5048629;28;86963;-55
2022/04/01 04:42:44;;;;;;;;;;;12.60;64.70;;;;;;5047803;28;86904;-56
2022/04/01 04:45:11;;;;;;;;;;;12.60;64.70;;;;;;5048167;28;88711;-54
2022/04/01 04:47:37;;;;;;;;;;;12.60;64.80;;;;;;5052085;28;86318;-56
2022/04/01 04:50:03;;;;;;;;;;;12.60;64.80;;;;;;5047814;28;88339;-57
2022/04/01 04:52:31;;;;;;;;;;;12.60;64.70;;;;;;5048041;28;87044;-54
2022/04/01 04:54:58;;;;;;;;;;;12.60;64.80;;;;;;5047393;28;88118;-56
2022/04/01 04:57:25;;;;;;;;;;;12.60;64.80;;;;;;5047873;28;86883;-57
2022/04/01 04:59:51;;;;;;;;;;;12.60;64.80;;;;;;5048218;28;87203;-55
2022/04/01 05:02:33;;;;;;;;;;;12.60;64.80;;;;;;5047933;28;87114;-57
2022/04/01 05:05:18;;;;;;;;;;;12.60;64.80;;;;;;5047586;28;87802;-56
2022/04/01 05:08:03;;;;;;;;;;;12.60;64.80;;;;;;5048056;28;87083;-56
2022/04/01 05:10:47;;;;;;;;;;;12.60;64.90;;;;;;5050314;28;87910;-55
2022/04/01 05:13:32;;;;;;;;;;;12.60;64.80;;;;;;5048243;28;86166;-56
2022/04/01 05:16:05;;;;;;;;;;;12.60;64.80;;;;;;5047734;28;87119;-57
2022/04/01 05:18:48;;;;;;;;;;;12.60;64.90;;;;;;5046908;27;88762;-54
2022/04/01 05:21:18;;;;;;;;;;;12.50;64.80;;;;;;5046967;28;87943;-57
2022/04/01 05:23:50;;;;;;;;;;;12.60;64.80;;;;;;5047663;28;88393;-54
2022/04/01 05:26:20;;;;;;;;;;;12.60;64.80;;;;;;5047355;28;87385;-57
2022/04/01 05:29:00;;;;;;;;;;;12.60;64.80;;;;;;5047391;28;86826;-55
2022/04/01 05:31:32;;;;;;;;;;;12.60;64.70;;;;;;5047490;28;88085;-53
2022/04/01 05:34:07;;;;;;;;;;;12.60;64.70;;;;;;5049797;28;88577;-55
2022/04/01 05:36:34;;;;;;;;;;;12.60;64.60;;;;;;5047400;28;87216;-54
2022/04/01 05:39:00;;;;;;;;;;;12.60;64.70;;;;;;5047221;28;87777;-57
2022/04/01 05:41:25;;;;;;;;;;;12.60;64.60;;;;;;5047711;28;87066;-57
2022/04/01 05:43:51;;;;;;;;;;;12.60;64.60;;;;;;5029575;28;89279;-57
2022/04/01 05:46:19;;;;;;;;;;;12.60;64.50;;;;;;5046372;28;88253;-57
2022/04/01 05:48:46;;;;;;;;;;;12.60;64.50;;;;;;5047329;28;86751;-56
2022/04/01 05:51:15;;;;;;;;;;;12.60;64.50;;;;;;5047242;28;88224;-57
2022/04/01 05:53:45;;;;;;;;;;;12.60;64.50;;;;;;5046724;28;87916;-55
2022/04/01 05:56:11;;;;;;;;;;;12.60;64.40;;;;;;5049240;28;86943;-57
2022/04/01 05:58:37;;;;;;;;;;;12.60;64.40;;;;;;5046720;28;87849;-57
2022/04/01 06:01:03;;;;;;;;;;;12.60;64.40;;;;;;5046882;28;86930;-56
2022/04/01 06:03:47;;;;;;;;;;;12.70;64.40;;;;;;5047373;28;87996;-57
2022/04/01 06:06:31;;;;;;;;;;;12.70;64.40;;;;;;5046741;28;87241;-57
2022/04/01 06:09:00;;;;;;;;;;;12.70;64.50;;;;;;5047096;28;86858;-55
2022/04/01 06:11:49;;;;;;;;;;;12.70;64.40;;;;;;5046373;28;88186;-54
2022/04/01 06:14:26;;;;;;;;;;;12.70;64.40;;;;;;5040521;28;88475;-56
2022/04/01 06:17:05;;;;;;;;;;;12.70;64.40;;;;;;5047083;28;86840;-56
2022/04/01 06:19:51;;;;;;;;;;;12.70;64.40;;;;;;5049230;28;88225;-55
2022/04/01 06:22:17;;;;;;;;;;;12.70;64.40;;;;;;5045892;28;86981;-57
2022/04/01 06:25:02;;;;;;;;;;;12.70;64.40;;;;;;5046966;28;86927;-56
2022/04/01 06:27:47;;;;;;;;;;;12.70;64.40;;;;;;5046215;28;87754;-57
2022/04/01 06:30:14;;;;;;;;;;;12.70;64.40;;;;;;5046013;27;86465;-56
2022/04/01 06:32:48;;;;;;;;;;;12.70;64.50;;;;;;5046816;28;87073;-56
2022/04/01 06:35:14;;;;;;;;;;;12.70;64.50;;;;;;5045979;28;88972;-54
2022/04/01 06:37:42;;;;;;;;;;;12.70;64.40;;;;;;5045599;28;87876;-56
2022/04/01 06:40:12;;;;;;;;;;;12.70;64.50;;;;;;5048952;28;89008;-55
2022/04/01 06:42:39;;;;;;;;;;;12.70;64.40;;;;;;5046242;28;86848;-56
2022/04/01 06:45:05;;;;;;;;;;;12.70;64.40;;;;;;5046293;28;87141;-57
2022/04/01 06:47:31;;;;;;;;;;;12.70;64.50;;;;;;5045815;28;89891;-56
2022/04/01 06:49:57;;;;;;;;;;;12.70;64.60;;;;;;5046381;28;86772;-57
2022/04/01 06:52:24;;;;;;;;;;;12.70;64.50;;;;;;5046212;28;88035;-57
2022/04/01 06:54:50;;;;;;;;;;;12.80;64.60;;;;;;5046250;28;87295;-57
2022/04/01 06:57:16;;;;;;;;;;;12.80;64.60;;;;;;5046020;28;86838;-56
2022/04/01 06:59:41;;;;;;;;;;;12.70;64.50;;;;;;5046032;28;88178;-55
2022/04/01 07:02:07;;;;;;;;;;;12.80;64.40;;;;;;5047830;28;88567;-53
2022/04/01 07:04:33;;;;;;;;;;;12.70;64.40;;;;;;5045965;28;88911;-56
2022/04/01 07:06:59;;;;;;;;;;;12.70;64.50;;;;;;5045788;28;87436;-56
2022/04/01 07:09:25;;;;;;;;;;;12.80;64.50;;;;;;5045709;28;86942;-57
2022/04/01 07:11:51;;;;;;;;;;;12.80;64.40;;;;;;5045970;28;88061;-57
2022/04/01 07:14:16;;;;;;;;;;;12.80;64.30;;;;;;5045564;28;88439;-57
2022/04/01 07:16:42;;;;;;;;;;;12.80;64.50;;;;;;5056158;27;86994;-57
2022/04/01 07:19:08;;;;;;;;;;;12.80;64.50;;;;;;5046379;28;87881;-55
2022/04/01 07:21:34;;;;;;;;;;;12.80;64.60;;;;;;5045459;28;88481;-56
2022/04/01 07:24:01;;;;;;;;;;;12.80;64.70;;;;;;5049140;28;87152;-55
2022/04/01 07:26:27;;;;;;;;;;;12.70;64.80;;;;;;5044544;28;89892;-56
2022/04/01 07:28:54;;;;;;;;;;;12.80;64.80;;;;;;5045754;28;86879;-57
2022/04/01 07:34:05;;;;;;;;;;;12.80;65.00;;;;;;5042186;28;86891;-56
2022/04/01 07:36:31;;;;;;;;;;;12.70;65.10;;;;;;5045572;28;86884;-55
2022/04/01 07:38:56;;;;;;;;;;;12.80;65.30;;;;;;5045571;28;86847;-56
2022/04/01 07:41:22;;;;;;;;;;;12.80;65.20;;;;;;5046042;27;87411;-57
2022/04/01 07:43:47;;;;;;;;;;;12.80;65.10;;;;;;5049420;28;86219;-56
2022/04/01 07:46:14;;;;;;;;;;;12.80;65.10;;;;;;5051813;28;87553;-54
2022/04/01 07:48:39;;;;;;;;;;;12.90;65.30;;;;;;5049037;28;86916;-54
2022/04/01 07:51:05;;;;;;;;;;;12.80;65.30;;;;;;5048884;28;87989;-56
2022/04/01 07:53:31;;;;;;;;;;;12.80;65.40;;;;;;5048546;28;88674;-56
2022/04/01 07:55:57;;;;;;;;;;;12.90;65.40;;;;;;5048781;28;86867;-56
2022/04/01 07:58:22;;;;;;;;;;;12.90;65.50;;;;;;5048974;28;87039;-54
2022/04/01 08:00:48;;;;;;;;;;;12.80;65.50;;;;;;5048524;28;87820;-57
2022/04/01 08:03:13;;;;;;;;;;;12.90;65.60;;;;;;5049103;28;86878;-56
2022/04/01 08:05:39;;;;;;;;;;;12.80;65.70;;;;;;5043534;28;86883;-56
2022/04/01 08:08:05;;;;;;;;;;;12.80;65.70;;;;;;5049141;28;86968;-53
2022/04/01 08:10:30;;;;;;;;;;;12.80;65.60;;;;;;5048791;28;87127;-55
2022/04/01 08:12:56;;;;;;;;;;;12.80;65.80;;;;;;5048256;28;88609;-56
2022/04/01 08:15:22;;;;;;;;;;;12.80;65.80;;;;;;5048319;28;87829;-56
2022/04/01 08:17:47;;;;;;;;;;;12.80;65.80;;;;;;5048702;28;89194;-57
2022/04/01 08:20:13;;;;;;;;;;;12.80;65.90;;;;;;5048138;28;88637;-54
2022/04/01 08:22:39;;;;;;;;;;;12.90;66.00;;;;;;5048871;28;86840;-57
2022/04/01 08:25:05;;;;;;;;;;;12.80;65.90;;;;;;5048736;28;86827;-56
2022/04/01 08:27:30;;;;;;;;;;;12.80;65.90;;;;;;5048278;28;86854;-53
2022/04/01 08:29:59;;;;;;;;;;;12.80;65.90;;;;;;5051720;28;86874;-56
2022/04/01 08:32:29;;;;;;;;;;;12.90;65.90;;;;;;5048410;28;87939;-56
2022/04/01 08:34:55;;;;;;;;;;;12.80;65.90;;;;;;5048390;28;87179;-54
2022/04/01 08:37:21;;;;;;;;;;;12.90;65.90;;;;;;5048366;28;87023;-56
2022/04/01 08:39:47;;;;;;;;;;;12.90;65.90;;;;;;5046946;28;89379;-57
2022/04/01 08:42:13;;;;;;;;;;;12.90;65.90;;;;;;5048069;28;86907;-58
2022/04/01 08:44:42;;;;;;;;;;;12.80;65.80;;;;;;5048120;28;87560;-57
2022/04/01 08:47:08;;;;;;;;;;;12.90;65.90;;;;;;5047000;28;89216;-57
2022/04/01 08:49:34;;;;;;;;;;;12.90;65.80;;;;;;5051357;28;87282;-57
2022/04/01 08:52:00;;;;;;;;;;;12.90;65.80;;;;;;5047899;28;87259;-57
2022/04/01 08:54:26;;;;;;;;;;;12.90;65.80;;;;;;5047387;27;86883;-57
2022/04/01 08:56:51;;;;;;;;;;;12.90;65.90;;;;;;5048719;28;86836;-57
2022/04/01 08:59:17;;;;;;;;;;;12.90;65.80;;;;;;5046534;28;87450;-54
2022/04/01 09:01:44;;;;;;;;;;;12.90;65.70;;;;;;5047977;28;86882;-54
2022/04/01 09:04:16;;;;;;;;;;;12.90;65.70;;;;;;5047383;28;87997;-56
2022/04/01 09:06:42;;;;;;;;;;;12.90;65.80;;;;;;5046943;28;88650;-57
2022/04/01 09:09:19;;;;;;;;;;;12.90;65.70;;;;;;5047824;28;86890;-54
2022/04/01 09:12:02;;;;;;;;;;;12.90;65.80;;;;;;5050417;28;86888;-52
2022/04/01 09:14:27;;;;;;;;;;;12.90;65.80;;;;;;5047758;28;86846;-57
2022/04/01 09:16:53;;;;;;;;;;;13.00;65.80;;;;;;5047582;28;88247;-54
2022/04/01 09:19:27;;;;;;;;;;;13.00;65.80;;;;;;5047341;28;88525;-54
2022/04/01 09:21:54;;;;;;;;;;;13.00;65.80;;;;;;5048044;28;86203;-57
2022/04/01 09:24:19;;;;;;;;;;;13.00;65.90;;;;;;5048207;28;87114;-54
2022/04/01 09:26:45;;;;;;;;;;;13.00;65.80;;;;;;5047172;28;88705;-56
2022/04/01 09:29:11;;;;;;;;;;;13.00;65.90;;;;;;5046825;28;87786;-56
2022/04/01 09:31:39;;;;;;;;;;;13.00;65.90;;;;;;5047389;28;88840;-56
2022/04/01 09:34:10;;;;;;;;;;;13.10;65.90;;;;;;5050349;28;86921;-56
2022/04/01 09:36:37;;;;;;;;;;;13.10;66.00;;;;;;5046258;28;88176;-55
2022/04/01 09:39:06;;;;;;;;;;;13.10;65.90;;;;;;5046404;28;88661;-56
2022/04/01 09:41:36;;;;;;;;;;;13.10;66.00;;;;;;5047227;28;86861;-57
2022/04/01 09:44:03;;;;;;;;;;;13.10;66.00;;;;;;5047107;28;88040;-56
2022/04/01 09:46:29;;;;;;;;;;;13.10;66.00;;;;;;5047402;28;86735;-57
2022/04/01 09:48:59;;;;;;;;;;;13.10;66.00;;;;;;5047203;28;87177;-56
2022/04/01 09:51:29;;;;;;;;;;;13.10;66.00;;;;;;5045957;28;86941;-57
2022/04/01 09:53:54;;;;;;;;;;;13.20;66.00;;;;;;5045002;28;88783;-54
2022/04/01 09:56:39;;;;;;;;;;;13.20;66.00;;;;;;5049951;28;86982;-57
2022/04/01 09:59:05;;;;;;;;;;;13.20;66.00;;;;;;5045456;28;87525;-57
2022/04/01 10:01:32;;;;;;;;;;;13.20;66.00;;;;;;5047085;28;87266;-54
2022/04/01 10:03:57;;;;;;;;;;;13.20;66.20;;;;;;5045842;28;88209;-57
2022/04/01 10:06:23;;;;;;;;;;;13.20;66.10;;;;;;5045473;28;88510;-57
2022/04/01 10:08:50;;;;;;;;;;;13.30;66.10;;;;;;5046856;28;86878;-57
2022/04/01 10:11:16;;;;;;;;;;;13.20;66.00;;;;;;5047175;28;87046;-57
2022/04/01 10:13:42;;;;;;;;;;;13.30;66.00;;;;;;5046286;28;88674;-55
2022/04/01 10:16:09;;;;;;;;;;;13.30;66.00;;;;;;5046995;28;86942;-57
2022/04/01 10:18:35;;;;;;;;;;;13.30;66.00;;;;;;5048647;28;88294;-57
2022/04/01 10:21:03;;;;;;;;;;;13.30;66.00;;;;;;5046576;28;86993;-55
2022/04/01 10:23:29;;;;;;;;;;;13.30;65.90;;;;;;5046435;28;88428;-56
2022/04/01 10:26:01;;;;;;;;;;;13.30;65.90;;;;;;5046254;28;88637;-58
2022/04/01 10:28:27;;;;;;;;;;;13.40;66.00;;;;;;5046718;28;86882;-56
2022/04/01 10:30:54;;;;;;;;;;;13.30;65.90;;;;;;5047070;28;87179;-56
2022/04/01 10:33:46;;;;;;;;;;;13.40;66.00;;;;;;5045680;28;87762;-54
2022/04/01 10:36:14;;;;;;;;;;;13.40;65.90;;;;;;5043303;27;86254;-56
2022/04/01 10:38:40;;;;;;;;;;;13.40;65.90;;;;;;5048868;28;87593;-56
2022/04/01 10:41:06;;;;;;;;;;;13.40;65.80;;;;;;5045053;28;87001;-56
2022/04/01 10:43:32;;;;;;;;;;;13.40;65.80;;;;;;5045568;28;87845;-57
2022/04/01 10:46:05;;;;;;;;;;;13.40;65.90;;;;;;5046079;28;88694;-58
2022/04/01 10:54:01;;;;;;;;;;;13.50;65.80;;;;;;5046105;28;86991;-57
2022/04/01 10:56:28;;;;;;;;;;;13.50;65.70;;;;;;5046144;28;86890;-56
2022/04/01 10:58:59;;;;;;;;;;;13.50;65.70;;;;;;5042924;28;91899;-57
2022/04/01 11:01:25;;;;;;;;;;;13.50;65.70;;;;;;5045922;28;91732;-56
2022/04/01 11:03:52;;;;;;;;;;;13.50;65.70;;;;;;5042625;28;92286;-55
2022/04/01 11:06:21;;;;;;;;;;;13.50;65.80;;;;;;5041697;28;93722;-57
2022/04/01 11:08:53;;;;;;;;;;;13.50;65.80;;;;;;5042259;28;92912;-57
2022/04/01 11:11:18;;;;;;;;;;;13.50;65.70;;;;;;5042407;28;94009;-56
2022/04/01 11:14:02;;;;;;;;;;;13.50;65.80;;;;;;5042355;28;92484;-54
2022/04/01 11:16:44;;;;;;;;;;;13.50;65.80;;;;;;5041933;28;92025;-56
2022/04/01 11:19:30;;;;;;;;;;;13.50;65.80;;;;;;5041386;28;93293;-54
2022/04/01 11:21:55;;;;;;;;;;;13.50;65.50;;;;;;5040075;27;93631;-56
2022/04/01 11:24:33;;;;;;;;;;;13.60;65.70;;;;;;5045713;28;91993;-57
2022/04/01 11:27:05;;;;;;;;;;;13.60;65.70;;;;;;5042556;28;92707;-55
2022/04/01 11:29:31;;;;;;;;;;;13.60;65.70;;;;;;5042389;28;91909;-55
2022/04/01 11:32:01;;;;;;;;;;;13.50;65.70;;;;;;5042345;28;92864;-56
2022/04/01 11:34:26;;;;;;;;;;;13.60;65.90;;;;;;5041283;28;93444;-56
2022/04/01 11:36:57;;;;;;;;;;;13.60;66.10;;;;;;5042170;28;91903;-54
2022/04/01 11:39:24;;;;;;;;;;;13.60;66.30;;;;;;5041923;28;92008;-56
2022/04/01 11:41:54;;;;;;;;;;;13.60;66.50;;;;;;5041598;28;93989;-58
2022/04/01 11:44:20;;;;;;;;;;;13.60;66.60;;;;;;5042231;28;91916;-57
2022/04/01 11:46:53;;;;;;;;;;;13.70;66.60;;;;;;5044389;28;92934;-56
2022/04/01 11:49:18;;;;;;;;;;;13.60;66.50;;;;;;5042339;28;92074;-58
2022/04/01 11:51:44;;;;;;;;;;;13.60;66.50;;;;;;5042828;28;91616;-57
2022/04/01 11:54:10;;;;;;;;;;;13.60;66.60;;;;;;5041447;28;93595;-57
2022/04/01 11:56:36;;;;;;;;;;;13.70;66.50;;;;;;5042365;28;91941;-57
2022/04/01 11:59:05;;;;;;;;;;;13.60;66.60;;;;;;5041478;28;93031;-57
2022/04/01 12:01:32;;;;;;;;;;;13.70;66.50;;;;;;5041662;28;93624;-54
2022/04/01 12:04:05;;;;;;;;;;;13.60;66.40;;;;;;5041843;28;92445;-57
2022/04/01 12:09:15;;;;;;;;;;;13.70;66.90;;;;;;5044521;28;91943;-56
2022/04/01 12:11:41;;;;;;;;;;;13.70;66.70;;;;;;5040716;28;92976;-55
2022/04/01 12:14:07;;;;;;;;;;;13.70;67.10;;;;;;5041291;28;93519;-58
2022/04/01 12:16:37;;;;;;;;;;;13.70;66.80;;;;;;5041074;28;91268;-57
2022/04/01 12:19:03;;;;;;;;;;;13.70;66.70;;;;;;5041893;28;92187;-57
2022/04/01 12:21:28;;;;;;;;;;;13.70;66.80;;;;;;5041519;28;91978;-56
2022/04/01 12:23:54;;;;;;;;;;;13.70;66.90;;;;;;5041101;28;93380;-58
2022/04/01 12:26:20;;;;;;;;;;;13.80;66.90;;;;;;5041827;28;93220;-55
2022/04/01 12:28:50;;;;;;;;;;;13.80;66.90;;;;;;5042467;27;92913;-57
2022/04/01 12:31:16;;;;;;;;;;;13.80;66.80;;;;;;5048199;28;91986;-55
2022/04/01 12:33:44;;;;;;;;;;;13.80;66.90;;;;;;5044336;28;93764;-57
2022/04/01 12:36:10;;;;;;;;;;;13.80;66.80;;;;;;5045367;28;91927;-57
2022/04/01 12:38:40;;;;;;;;;;;13.90;66.90;;;;;;5035668;28;91907;-57
2022/04/01 12:41:19;;;;;;;;;;;13.90;67.00;;;;;;5024912;28;91540;-58
2022/04/01 12:43:48;;;;;;;;;;;13.90;67.00;;;;;;5024307;28;92276;-57
2022/04/01 12:46:18;;;;;;;;;;;13.90;67.00;;;;;;5024669;28;93080;-57
2022/04/01 12:48:46;;;;;;;;;;;13.90;66.90;;;;;;5023380;28;95036;-58
2022/04/01 12:51:20;;;;;;;;;;;13.90;67.00;;;;;;5027597;28;91934;-58
2022/04/01 12:53:52;;;;;;;;;;;13.90;67.70;;;;;;5024044;28;93558;-56
2022/04/01 12:56:19;;;;;;;;;;;13.90;67.10;;;;;;5024375;28;92017;-57
2022/04/01 12:58:49;;;;;;;;;;;13.90;67.20;;;;;;5024718;28;91962;-56
2022/04/01 13:01:18;;;;;;;;;;;13.90;67.20;;;;;;5023374;28;94003;-57
2022/04/01 13:03:45;;;;;;;;;;;13.90;67.30;;;;;;5024552;28;91958;-58
2022/04/01 13:06:11;;;;;;;;;;;13.90;67.40;;;;;;5025016;28;91774;-57
2022/04/01 13:08:37;;;;;;;;;;;13.90;67.20;;;;;;5023684;28;93543;-57
2022/04/01 13:11:11;;;;;;;;;;;13.90;67.40;;;;;;5024691;28;91923;-57
2022/04/01 13:13:37;;;;;;;;;;;13.90;67.40;;;;;;5026335;28;93049;-57
2022/04/01 13:16:02;;;;;;;;;;;13.90;67.30;;;;;;5024159;28;92146;-57
2022/04/01 13:18:32;;;;;;;;;;;13.90;67.50;;;;;;5024027;28;93001;-57
2022/04/01 13:20:58;;;;;;;;;;;13.90;67.40;;;;;;5023451;28;92710;-57
2022/04/01 13:23:25;;;;;;;;;;;13.90;67.30;;;;;;5023944;28;91922;-57
2022/04/01 13:25:51;;;;;;;;;;;13.90;67.70;;;;;;5024436;28;93088;-58
2022/04/01 13:28:16;;;;;;;;;;;13.90;67.50;;;;;;5023355;28;93485;-56
2022/04/01 13:30:42;;;;;;;;;;;13.90;67.40;;;;;;5024236;28;91256;-58
2022/04/01 13:33:08;;;;;;;;;;;13.90;67.50;;;;;;5023866;28;92146;-58
2022/04/01 13:35:34;;;;;;;;;;;13.90;67.40;;;;;;5026389;28;93871;-57
2022/04/01 13:37:59;;;;;;;;;;;14.00;67.40;;;;;;5027423;28;93190;-58
2022/04/01 13:40:25;;;;;;;;;;;13.90;67.20;;;;;;5043392;27;92818;-58
2022/04/01 13:42:52;;;;;;;;;;;13.90;67.20;;;;;;5044109;28;91897;-58
2022/04/01 13:45:18;;;;;;;;;;;14.00;67.10;;;;;;5043856;28;92963;-57
2022/04/01 13:47:44;;;;;;;;;;;13.90;67.00;;;;;;5042964;28;91984;-58
2022/04/01 13:50:10;;;;;;;;;;;13.90;67.00;;;;;;5043087;28;92006;-55
2022/04/01 13:52:35;;;;;;;;;;;13.90;67.00;;;;;;5042535;28;92340;-57
2022/04/01 13:55:02;;;;;;;;;;;13.90;67.00;;;;;;5043945;28;92954;-56
2022/04/01 13:57:27;;;;;;;;;;;14.00;67.00;;;;;;5046092;28;91902;-57
2022/04/01 13:59:53;;;;;;;;;;;13.90;67.30;;;;;;5043843;28;92594;-55
2022/04/01 14:02:19;;;;;;;;;;;13.90;67.40;;;;;;5043326;28;92926;-57
2022/04/01 14:04:44;;;;;;;;;;;14.00;67.50;;;;;;5044305;28;92684;-55
2022/04/01 14:07:10;;;;;;;;;;;13.90;67.40;;;;;;5043454;28;93532;-54
2022/04/01 14:09:37;;;;;;;;;;;14.00;67.40;;;;;;5044051;28;91899;-57
2022/04/01 18:40:57;;;;;;;;;;;12.40;68.40;;;;;;5000455;27;1352072;-53
2022/04/01 18:43:24;;;;;;;;;;;12.60;68.20;;;;;;5045808;28;80287;-54
2022/04/01 18:45:52;;;;;;;;;;;12.60;67.90;;;;;;5046879;28;81457;-53
2022/04/01 18:48:17;;;;;;;;;;;12.70;67.60;;;;;;5046717;28;80887;-53
2022/04/01 18:50:45;;;;;;;;;;;12.70;67.40;;;;;;5046814;28;80313;-57
2022/04/01 18:53:10;;;;;;;;;;;12.80;67.20;;;;;;5046796;28;81359;-54
2022/04/01 18:55:37;;;;;;;;;;;12.80;67.00;;;;;;5046912;28;80543;-56
2022/04/01 18:58:04;;;;;;;;;;;12.80;67.00;;;;;;5046930;28;80380;-56
2022/04/01 19:00:29;;;;;;;;;;;12.80;66.90;;;;;;5049260;28;81106;-54
2022/04/01 19:03:07;;;;;;;;;;;12.80;66.80;;;;;;5046957;28;80059;-53
2022/04/01 19:05:37;;;;;;;;;;;12.80;66.80;;;;;;5046600;28;82897;-56